createdAt,value
2018-08-03T00:07:17.406Z,42.50
2018-08-03T00:09:44.941Z,42.50
2018-08-03T00:12:12.536Z,42.50
2018-08-03T00:14:40.003Z,42.60
2018-08-03T00:17:07.492Z,43.10
2018-08-03T00:19:34.997Z,42.50
2018-08-03T00:22:02.813Z,42.60
2018-08-03T00:24:30.370Z,42.60
2018-08-03T00:26:57.840Z,42.70
2018-08-03T00:29:25.435Z,42.90
2018-08-03T00:31:53.137Z,42.60
2018-08-03T00:34:20.944Z,42.60
2018-08-03T00:36:48.435Z,42.70
2018-08-03T00:39:15.903Z,42.70
2018-08-03T00:41:43.508Z,42.70
2018-08-03T00:44:10.972Z,42.70
2018-08-03T00:46:38.456Z,42.60
2018-08-03T00:49:06.332Z,42.60
2018-08-03T00:51:34.400Z,42.50
2018-08-03T00:54:01.977Z,42.60
2018-08-03T00:56:29.922Z,42.60
2018-08-03T00:58:57.397Z,42.60
2018-08-03T01:01:24.923Z,42.50
2018-08-03T01:03:52.393Z,42.30
2018-08-03T01:06:19.851Z,42.30
2018-08-03T01:08:47.328Z,42.30
2018-08-03T01:11:15.112Z,42.40
2018-08-03T01:13:42.579Z,42.50
2018-08-03T01:16:10.072Z,42.50
2018-08-03T01:18:37.775Z,43.20
2018-08-03T01:21:05.236Z,42.80
2018-08-03T01:23:32.797Z,42.80
2018-08-03T01:26:00.680Z,42.80
2018-08-03T01:28:28.336Z,42.90
2018-08-03T01:30:55.898Z,43.00
2018-08-03T01:33:23.387Z,43.00
2018-08-03T01:40:52.030Z,42.90
2018-08-03T01:43:20.079Z,43.10
2018-08-03T01:45:47.648Z,43.10
2018-08-03T01:48:15.120Z,43.10
2018-08-03T01:50:42.916Z,43.10
2018-08-03T01:53:10.393Z,43.10
2018-08-03T01:55:38.018Z,43.10
2018-08-03T01:58:06.044Z,43.10
2018-08-03T02:00:33.505Z,43.00
2018-08-03T02:03:01.213Z,43.10
2018-08-03T02:05:28.673Z,43.20
2018-08-03T02:07:56.572Z,43.20
2018-08-03T02:10:24.364Z,43.20
2018-08-03T02:12:51.844Z,43.40
2018-08-03T02:15:19.668Z,43.70
2018-08-03T02:17:47.544Z,43.10
2018-08-03T02:20:15.360Z,43.10
2018-08-03T02:22:43.252Z,43.10
2018-08-03T02:25:10.722Z,43.10
2018-08-03T02:27:38.181Z,43.10
2018-08-03T02:30:05.749Z,43.50
2018-08-03T02:32:33.312Z,43.00
2018-08-03T02:35:00.784Z,42.90
2018-08-03T02:37:28.249Z,42.90
2018-08-03T02:39:55.725Z,42.90
2018-08-03T02:42:23.200Z,43.00
2018-08-03T02:44:50.693Z,43.10
2018-08-03T02:47:18.505Z,43.20
2018-08-03T02:49:46.201Z,43.10
2018-08-03T02:52:13.664Z,43.20
2018-08-03T02:54:41.132Z,43.20
2018-08-03T02:57:08.672Z,43.30
2018-08-03T02:59:36.148Z,43.50
2018-08-03T03:02:03.620Z,43.30
2018-08-03T03:04:31.088Z,43.50
2018-08-03T03:06:58.701Z,43.30
2018-08-03T03:10:29.417Z,43.40
2018-08-03T03:12:56.884Z,43.40
2018-08-03T03:15:24.702Z,43.40
2018-08-03T03:17:52.504Z,43.40
2018-08-03T03:20:19.973Z,43.60
2018-08-03T03:22:47.764Z,43.60
2018-08-03T03:25:15.436Z,43.60
2018-08-03T03:27:42.904Z,43.60
2018-08-03T03:30:10.380Z,43.20
2018-08-03T03:32:38.235Z,43.60
2018-08-03T03:35:05.864Z,43.70
2018-08-03T03:37:33.325Z,43.60
2018-08-03T03:40:00.986Z,43.50
2018-08-03T03:42:28.524Z,43.40
2018-08-03T03:44:56.333Z,43.20
2018-08-03T03:49:51.085Z,43.00
2018-08-03T03:52:18.544Z,43.10
2018-08-03T03:54:46.033Z,43.20
2018-08-03T03:57:13.521Z,43.40
2018-08-03T03:59:40.993Z,43.60
2018-08-03T04:02:08.481Z,43.70
2018-08-03T04:04:36.288Z,43.70
2018-08-03T04:07:03.793Z,43.70
2018-08-03T04:09:31.256Z,43.90
2018-08-03T04:11:58.728Z,43.90
2018-08-03T04:14:26.202Z,43.90
2018-08-03T04:16:53.660Z,43.90
2018-08-03T04:19:21.132Z,43.90
2018-08-03T04:21:48.628Z,43.90
2018-08-03T04:24:16.436Z,43.80
2018-08-03T04:26:43.900Z,43.70
2018-08-03T04:29:11.376Z,43.70
2018-08-03T04:31:39.048Z,43.80
2018-08-03T04:34:06.520Z,44.60
2018-08-03T04:36:34.021Z,43.90
2018-08-03T04:39:01.610Z,43.80
2018-08-03T04:41:29.585Z,43.80
2018-08-03T04:43:57.052Z,43.90
2018-08-03T04:46:24.521Z,43.90
2018-08-03T04:48:52.029Z,44.00
2018-08-03T04:51:19.489Z,44.00
2018-08-03T04:53:46.956Z,44.10
2018-08-03T04:56:14.423Z,44.10
2018-08-03T04:58:41.889Z,44.20
2018-08-03T05:01:09.348Z,44.30
2018-08-03T05:03:36.829Z,44.10
2018-08-03T05:06:04.339Z,43.90
2018-08-03T05:08:32.001Z,43.70
2018-08-03T05:11:03.756Z,43.70
2018-08-03T05:13:31.404Z,43.60
2018-08-03T05:15:58.872Z,43.70
2018-08-03T05:18:26.341Z,43.70
2018-08-03T05:20:53.813Z,43.70
2018-08-03T05:23:21.268Z,43.80
2018-08-03T05:25:48.937Z,43.80
2018-08-03T05:28:16.397Z,43.90
2018-08-03T05:30:43.864Z,44.00
2018-08-03T05:33:11.661Z,44.10
2018-08-03T05:35:39.492Z,44.00
2018-08-03T05:38:06.952Z,44.00
2018-08-03T05:40:34.433Z,44.10
2018-08-03T05:43:01.896Z,44.20
2018-08-03T05:45:29.761Z,44.30
2018-08-03T05:47:57.718Z,44.40
2018-08-03T05:50:25.508Z,44.70
2018-08-03T05:52:53.069Z,44.70
2018-08-03T05:55:20.809Z,44.90
2018-08-03T05:57:48.629Z,45.20
2018-08-03T06:00:16.100Z,45.10
2018-08-03T06:02:43.613Z,45.20
2018-08-03T06:05:11.097Z,45.20
2018-08-03T06:07:38.913Z,45.10
2018-08-03T06:10:06.425Z,45.10
2018-08-03T06:12:33.960Z,45.00
2018-08-03T06:15:01.445Z,44.80
2018-08-03T06:17:29.245Z,44.70
2018-08-03T06:19:56.733Z,44.50
2018-08-03T06:22:24.305Z,44.50
2018-08-03T06:24:51.773Z,44.40
2018-08-03T06:30:50.629Z,44.40
2018-08-03T06:33:18.432Z,44.20
2018-08-03T06:35:45.916Z,44.20
2018-08-03T06:38:13.401Z,44.00
2018-08-03T06:40:41.047Z,44.00
2018-08-03T06:43:08.869Z,44.00
2018-08-03T06:45:36.672Z,44.00
2018-08-03T06:48:04.140Z,44.10
2018-08-03T06:50:31.613Z,44.00
2018-08-03T06:55:26.680Z,43.50
2018-08-03T06:57:54.142Z,43.40
2018-08-03T07:00:21.626Z,43.20
2018-08-03T07:02:49.311Z,43.40
2018-08-03T07:05:17.469Z,43.10
2018-08-03T07:07:44.928Z,42.90
2018-08-03T07:10:12.729Z,43.60
2018-08-03T07:12:40.208Z,42.70
2018-08-03T07:15:08.321Z,42.60
2018-08-03T07:17:35.789Z,42.30
2018-08-03T07:20:03.305Z,42.70
2018-08-03T07:22:31.284Z,42.30
2018-08-03T07:24:59.080Z,42.30
2018-08-03T07:27:26.552Z,42.10
2018-08-03T07:29:54.014Z,41.80
2018-08-03T07:32:21.485Z,41.80
2018-08-03T07:34:48.953Z,41.50
2018-08-03T07:37:16.814Z,41.50
2018-08-03T07:39:44.268Z,41.70
2018-08-03T07:42:12.077Z,41.80
2018-08-03T07:44:39.566Z,41.60
2018-08-03T07:47:07.517Z,41.20
2018-08-03T07:49:34.984Z,41.30
2018-08-03T07:52:02.801Z,41.20
2018-08-03T07:54:30.255Z,41.10
2018-08-03T07:56:58.090Z,41.00
2018-08-03T07:59:25.548Z,41.10
2018-08-03T08:01:53.022Z,40.90
2018-08-03T08:04:20.477Z,40.80
2018-08-03T08:06:48.284Z,40.40
2018-08-03T08:09:15.748Z,40.50
2018-08-03T08:11:43.552Z,40.30
2018-08-03T08:14:11.013Z,40.50
2018-08-03T08:16:38.485Z,40.80
2018-08-03T08:19:05.948Z,41.00
2018-08-03T08:21:33.505Z,41.00
2018-08-03T08:24:01.316Z,41.00
2018-08-03T08:26:28.780Z,41.00
2018-08-03T08:28:56.245Z,40.40
2018-08-03T08:31:23.736Z,39.60
2018-08-03T08:33:51.437Z,40.30
2018-08-03T08:36:18.897Z,40.10
2018-08-03T08:38:46.375Z,40.00
2018-08-03T08:41:14.041Z,39.90
2018-08-03T08:43:41.545Z,40.20
2018-08-03T08:46:09.176Z,39.80
2018-08-03T08:48:36.649Z,38.60
2018-08-03T08:51:04.446Z,38.70
2018-08-03T08:53:31.917Z,38.90
2018-08-03T08:55:59.380Z,38.80
2018-08-03T08:58:26.856Z,38.70
2018-08-03T09:00:54.591Z,38.70
2018-08-03T09:03:22.202Z,39.50
2018-08-03T09:05:49.656Z,38.90
2018-08-03T09:08:17.120Z,38.90
2018-08-03T09:10:44.585Z,38.70
2018-08-03T09:13:12.424Z,38.90
2018-08-03T09:15:40.409Z,38.80
2018-08-03T09:18:08.733Z,38.30
2018-08-03T09:20:36.193Z,37.80
2018-08-03T09:23:03.664Z,37.90
2018-08-03T09:25:31.128Z,37.60
2018-08-03T09:27:58.597Z,37.40
2018-08-03T09:30:26.053Z,37.90
2018-08-03T09:32:53.552Z,38.60
2018-08-03T09:35:21.157Z,37.20
2018-08-03T09:37:48.624Z,36.70
2018-08-03T09:40:16.420Z,36.80
2018-08-03T09:42:44.228Z,36.80
2018-08-03T09:45:11.692Z,36.50
2018-08-03T09:47:39.510Z,36.30
2018-08-03T09:50:07.025Z,35.40
2018-08-03T09:52:34.500Z,36.30
2018-08-03T09:55:01.981Z,36.10
2018-08-03T09:57:29.456Z,35.50
2018-08-03T09:59:56.916Z,36.50
2018-08-03T10:02:24.392Z,36.30
2018-08-03T10:04:51.868Z,36.00
2018-08-03T10:07:19.362Z,35.90
2018-08-03T10:09:47.414Z,36.20
2018-08-03T10:12:14.870Z,36.60
2018-08-03T10:14:42.340Z,35.90
2018-08-03T10:17:10.140Z,36.10
2018-08-03T10:19:37.708Z,36.20
2018-08-03T10:22:05.172Z,36.30
2018-08-03T10:24:32.649Z,35.80
2018-08-03T10:27:00.122Z,35.20
2018-08-03T10:29:27.924Z,35.00
2018-08-03T10:31:55.737Z,35.30
2018-08-03T10:34:23.328Z,35.10
2018-08-03T10:36:50.800Z,34.50
2018-08-03T10:39:18.274Z,35.00
2018-08-03T10:41:45.732Z,35.00
2018-08-03T10:44:13.197Z,35.10
2018-08-03T10:46:40.652Z,35.00
2018-08-03T10:49:08.132Z,34.00
2018-08-03T10:51:35.597Z,34.10
2018-08-03T10:54:03.070Z,34.30
2018-08-03T10:56:30.597Z,34.50
2018-08-03T10:58:58.077Z,34.80
2018-08-03T11:01:26.041Z,35.00
2018-08-03T11:03:53.622Z,35.00
2018-08-03T11:06:21.421Z,35.30
2018-08-03T11:08:48.957Z,34.30
2018-08-03T11:11:16.469Z,33.90
2018-08-03T11:13:44.320Z,34.40
2018-08-03T11:16:12.681Z,33.50
2018-08-03T11:18:40.156Z,33.00
2018-08-03T11:21:07.952Z,33.20
2018-08-03T11:23:35.432Z,33.20
2018-08-03T11:26:02.893Z,34.20
2018-08-03T11:28:30.688Z,32.90
2018-08-03T11:30:58.320Z,33.80
2018-08-03T11:33:25.865Z,32.50
2018-08-03T11:35:53.471Z,32.50
2018-08-03T11:38:21.287Z,32.10
2018-08-03T11:40:49.096Z,32.30
2018-08-03T11:43:17.069Z,32.70
2018-08-03T11:45:44.614Z,32.10
2018-08-03T11:48:12.167Z,31.80
2018-08-03T11:53:07.060Z,32.60
2018-08-03T11:55:34.877Z,33.50
2018-08-03T11:58:02.340Z,31.70
2018-08-03T12:00:29.808Z,31.80
2018-08-03T12:02:57.645Z,32.00
2018-08-03T12:05:25.492Z,31.80
2018-08-03T12:07:53.020Z,31.90
2018-08-03T12:10:20.529Z,32.00
2018-08-03T12:12:48.312Z,31.40
2018-08-03T12:15:15.793Z,31.30
2018-08-03T12:17:43.336Z,31.00
2018-08-03T12:20:10.848Z,30.30
2018-08-03T12:22:38.363Z,30.70
2018-08-03T12:25:06.355Z,31.20
2018-08-03T12:27:33.809Z,31.00
2018-08-03T12:30:01.281Z,31.60
2018-08-03T12:32:28.860Z,31.10
2018-08-03T12:37:23.581Z,30.10
2018-08-03T12:39:51.049Z,29.90
2018-08-03T12:42:18.504Z,29.70
2018-08-03T12:44:45.980Z,29.70
2018-08-03T12:47:13.441Z,29.70
2018-08-03T12:49:40.915Z,29.30
2018-08-03T12:52:09.308Z,29.80
2018-08-03T12:54:37.104Z,29.60
2018-08-03T12:57:04.949Z,29.70
2018-08-03T12:59:32.751Z,29.80
2018-08-03T13:02:00.417Z,30.10
2018-08-03T13:04:27.881Z,29.50
2018-08-03T13:06:55.345Z,29.70
2018-08-03T13:09:22.805Z,29.30
2018-08-03T13:11:50.292Z,29.20
2018-08-03T13:14:17.753Z,29.30
2018-08-03T13:16:45.233Z,29.60
2018-08-03T13:19:13.033Z,29.00
2018-08-03T13:21:41.620Z,28.80
2018-08-03T13:24:09.604Z,29.20
2018-08-03T13:26:37.400Z,29.10
2018-08-03T13:29:04.908Z,29.50
2018-08-03T13:31:32.604Z,29.60
2018-08-03T13:34:00.061Z,29.00
2018-08-03T13:36:28.813Z,28.50
2018-08-03T13:38:56.293Z,28.70
2018-08-03T13:41:23.961Z,28.50
2018-08-03T13:43:52.185Z,29.00
2018-08-03T13:46:19.684Z,28.50
2018-08-03T13:48:47.932Z,28.40
2018-08-03T13:51:16.317Z,28.80
2018-08-03T13:53:44.421Z,28.60
2018-08-03T13:56:12.544Z,28.60
2018-08-03T13:58:41.037Z,28.00
2018-08-03T14:03:36.830Z,28.50
2018-08-03T14:06:04.313Z,28.20
2018-08-03T14:08:31.781Z,27.50
2018-08-03T14:10:59.457Z,27.30
2018-08-03T14:13:26.949Z,27.60
2018-08-03T14:15:54.784Z,27.50
2018-08-03T14:18:22.245Z,27.90
2018-08-03T14:20:49.908Z,28.30
2018-08-03T14:23:17.444Z,28.10
2018-08-03T14:25:45.117Z,26.90
2018-08-03T14:28:12.789Z,26.90
2018-08-03T14:30:40.300Z,27.10
2018-08-03T14:33:08.114Z,27.70
2018-08-03T14:35:35.595Z,28.60
2018-08-03T14:38:03.301Z,28.30
2018-08-03T14:40:30.920Z,28.40
2018-08-03T14:42:58.408Z,28.10
2018-08-03T14:45:25.868Z,28.00
2018-08-03T14:47:53.677Z,27.80
2018-08-03T14:50:21.194Z,27.80
2018-08-03T14:52:49.052Z,28.10
2018-08-03T14:55:16.524Z,28.10
2018-08-03T15:00:11.504Z,28.00
2018-08-03T15:02:38.973Z,27.90
2018-08-03T15:05:06.684Z,27.70
2018-08-03T15:07:34.182Z,27.90
2018-08-03T15:10:03.840Z,27.80
2018-08-03T15:12:31.710Z,27.80
2018-08-03T15:14:59.704Z,27.60
2018-08-03T15:17:27.188Z,27.70
2018-08-03T15:19:54.980Z,27.80
2018-08-03T15:22:22.812Z,28.10
2018-08-03T15:24:50.283Z,27.70
2018-08-03T15:27:18.172Z,27.60
2018-08-03T15:29:46.016Z,28.00
2018-08-03T15:32:13.488Z,27.90
2018-08-03T15:34:40.953Z,27.90
2018-08-03T15:37:08.436Z,28.20
2018-08-03T15:39:35.904Z,28.10
2018-08-03T15:42:03.381Z,28.40
2018-08-03T15:44:31.173Z,28.00
2018-08-03T15:46:58.974Z,28.00
2018-08-03T15:49:26.480Z,27.70
2018-08-03T15:51:53.979Z,28.00
2018-08-03T15:54:21.784Z,28.10
2018-08-03T15:56:49.584Z,28.10
2018-08-03T15:59:17.056Z,28.30
2018-08-03T16:01:45.077Z,28.30
2018-08-03T16:04:12.857Z,28.40
2018-08-03T16:06:40.350Z,28.50
2018-08-03T16:09:09.290Z,28.50
2018-08-03T16:11:37.087Z,28.50
2018-08-03T16:14:04.758Z,28.70
2018-08-03T16:16:32.552Z,28.90
2018-08-03T16:21:27.328Z,28.90
2018-08-03T16:23:55.149Z,28.70
2018-08-03T16:26:22.608Z,28.40
2018-08-03T16:28:50.436Z,28.50
2018-08-03T16:31:18.336Z,29.10
2018-08-03T16:33:45.810Z,28.80
2018-08-03T16:36:13.269Z,28.50
2018-08-03T16:38:41.089Z,28.60
2018-08-03T16:41:09.121Z,28.60
2018-08-03T16:43:36.589Z,28.70
2018-08-03T16:46:04.048Z,28.60
2018-08-03T16:48:31.512Z,28.50
2018-08-03T16:50:58.981Z,28.60
2018-08-03T16:53:26.454Z,28.30
2018-08-03T16:55:54.257Z,28.70
2018-08-03T16:58:21.737Z,28.70
2018-08-03T17:00:49.299Z,28.50
2018-08-03T17:03:16.769Z,28.20
2018-08-03T17:05:44.233Z,28.30
2018-08-03T17:08:11.704Z,28.30
2018-08-03T17:10:39.189Z,28.50
2018-08-03T17:13:07.069Z,28.40
2018-08-03T17:15:34.720Z,28.20
2018-08-03T17:18:02.193Z,28.30
2018-08-03T17:20:29.654Z,28.50
2018-08-03T17:22:57.121Z,28.50
2018-08-03T17:25:24.589Z,28.20
2018-08-03T17:27:52.060Z,28.20
2018-08-03T17:30:19.513Z,28.30
2018-08-03T17:32:46.992Z,28.50
2018-08-03T17:35:14.518Z,28.60
2018-08-03T17:37:41.992Z,28.80
2018-08-03T17:40:10.097Z,28.70
2018-08-03T17:42:37.963Z,28.70
2018-08-03T17:45:06.061Z,28.80
2018-08-03T17:47:33.660Z,29.10
2018-08-03T17:50:01.213Z,29.10
2018-08-03T17:52:29.079Z,29.10
2018-08-03T17:54:56.595Z,29.00
2018-08-03T17:57:24.655Z,29.10
2018-08-03T17:59:52.196Z,29.20
2018-08-03T18:02:19.676Z,29.20
2018-08-03T18:04:47.528Z,29.10
2018-08-03T18:07:15.004Z,29.00
2018-08-03T18:09:42.813Z,29.00
2018-08-03T18:12:10.281Z,29.00
2018-08-03T18:14:37.955Z,28.80
2018-08-03T18:17:05.421Z,28.70
2018-08-03T18:19:32.985Z,28.60
2018-08-03T18:22:00.505Z,28.70
2018-08-03T18:24:28.309Z,28.70
2018-08-03T18:26:55.776Z,28.60
2018-08-03T18:29:23.348Z,28.60
2018-08-03T18:31:51.256Z,28.70
2018-08-03T18:34:18.733Z,28.80
2018-08-03T18:36:46.193Z,28.90
2018-08-03T18:39:14.000Z,28.80
2018-08-03T18:41:41.832Z,28.80
2018-08-03T18:44:10.257Z,28.80
2018-08-03T18:46:37.721Z,28.90
2018-08-03T18:49:05.185Z,28.90
2018-08-03T18:51:32.984Z,29.00
2018-08-03T18:54:00.473Z,29.00
2018-08-03T18:58:55.205Z,29.20
2018-08-03T19:01:23.576Z,29.20
2018-08-03T19:03:51.056Z,29.10
2018-08-03T19:06:18.852Z,29.20
2018-08-03T19:08:46.740Z,29.10
2018-08-03T19:11:14.192Z,29.10
2018-08-03T19:13:41.828Z,29.60
2018-08-03T19:16:09.384Z,29.10
2018-08-03T19:18:37.222Z,29.20
2018-08-03T19:21:05.048Z,29.30
2018-08-03T19:23:32.609Z,29.30
2018-08-03T19:26:00.089Z,29.70
2018-08-03T19:28:27.909Z,29.30
2018-08-03T19:30:55.372Z,29.40
2018-08-03T19:33:23.164Z,29.50
2018-08-03T19:35:50.980Z,29.50
2018-08-03T19:38:18.437Z,29.50
2018-08-03T19:40:45.909Z,29.60
2018-08-03T19:43:13.701Z,29.60
2018-08-03T19:45:41.229Z,29.50
2018-08-03T19:48:09.094Z,29.40
2018-08-03T19:50:36.929Z,30.00
2018-08-03T19:53:04.585Z,31.30
2018-08-03T19:55:32.397Z,32.00
2018-08-03T19:58:00.194Z,32.60
2018-08-03T20:00:27.701Z,32.90
2018-08-03T20:02:55.684Z,33.10
2018-08-03T20:05:23.496Z,33.70
2018-08-03T20:07:50.953Z,33.70
2018-08-03T20:10:18.429Z,33.90
2018-08-03T20:12:46.220Z,34.00
2018-08-03T20:15:13.696Z,34.00
2018-08-03T20:17:41.160Z,34.10
2018-08-03T20:20:08.648Z,34.30
2018-08-03T20:22:36.104Z,34.20
2018-08-03T20:25:03.889Z,34.10
2018-08-03T20:27:31.345Z,34.10
2018-08-03T20:29:59.148Z,34.30
2018-08-03T20:32:26.608Z,34.40
2018-08-03T20:34:54.076Z,34.40
2018-08-03T20:37:21.532Z,34.40
2018-08-03T20:39:49.099Z,34.50
2018-08-03T20:42:16.628Z,34.50
2018-08-03T20:44:44.570Z,34.50
2018-08-03T20:47:12.592Z,34.00
2018-08-03T20:49:40.133Z,33.70
2018-08-03T20:52:10.763Z,34.10
2018-08-03T20:54:38.428Z,33.50
2018-08-03T20:57:05.897Z,33.50
2018-08-03T20:59:33.920Z,33.60
2018-08-03T21:02:01.376Z,33.40
2018-08-03T21:04:28.952Z,33.30
2018-08-03T21:06:56.877Z,33.50
2018-08-03T21:09:24.344Z,33.70
2018-08-03T21:11:51.834Z,33.90
2018-08-03T21:14:19.372Z,34.10
2018-08-03T21:16:46.844Z,34.40
2018-08-03T21:19:14.325Z,34.70
2018-08-03T21:21:41.797Z,34.90
2018-08-03T21:24:09.260Z,34.70
2018-08-03T21:26:37.173Z,34.60
2018-08-03T21:29:04.633Z,34.70
2018-08-03T21:31:32.109Z,35.60
2018-08-03T21:33:59.572Z,35.00
2018-08-03T21:36:27.424Z,35.50
2018-08-03T21:38:54.881Z,35.40
2018-08-03T21:41:22.644Z,35.20
2018-08-03T21:43:50.493Z,35.10
2018-08-03T21:46:18.171Z,34.90
2018-08-03T21:48:45.777Z,35.20
2018-08-03T21:51:13.256Z,35.20
2018-08-03T21:53:40.724Z,35.10
2018-08-03T21:56:08.285Z,35.10
2018-08-03T21:58:36.089Z,35.20
2018-08-03T22:01:03.565Z,35.00
2018-08-03T22:03:31.028Z,34.90
2018-08-03T22:05:58.837Z,34.90
2018-08-03T22:08:26.307Z,35.10
2018-08-03T22:10:53.781Z,35.20
2018-08-03T22:13:21.241Z,35.20
2018-08-03T22:15:49.037Z,35.20
2018-08-03T22:18:16.597Z,35.10
2018-08-03T22:20:44.076Z,34.90
2018-08-03T22:23:11.613Z,35.00
2018-08-03T22:25:39.085Z,35.00
2018-08-03T22:28:06.649Z,34.90
2018-08-03T22:30:34.193Z,34.80
2018-08-03T22:33:01.821Z,34.90
2018-08-03T22:35:29.440Z,34.80
2018-08-03T22:37:56.947Z,34.90
2018-08-03T22:40:24.612Z,34.90
2018-08-03T22:42:52.136Z,34.90
2018-08-03T22:45:19.804Z,34.90
2018-08-03T22:47:47.601Z,35.00
2018-08-03T22:50:21.530Z,35.10
2018-08-03T22:52:49.325Z,35.20
2018-08-03T22:55:16.789Z,35.00
2018-08-03T22:57:44.673Z,35.10
2018-08-03T23:00:12.209Z,35.10
2018-08-03T23:02:40.144Z,35.30
2018-08-03T23:05:07.617Z,35.70
2018-08-03T23:07:35.083Z,35.50
2018-08-03T23:10:02.541Z,35.70
2018-08-03T23:12:30.014Z,36.10
2018-08-03T23:14:57.833Z,35.90
2018-08-03T23:17:25.380Z,36.10
2018-08-03T23:19:53.173Z,36.00
2018-08-03T23:22:20.641Z,35.60
2018-08-03T23:24:48.436Z,35.60
2018-08-03T23:27:16.284Z,35.60
2018-08-03T23:29:43.757Z,35.70
2018-08-03T23:32:11.221Z,35.70
2018-08-03T23:34:38.684Z,35.80
2018-08-03T23:37:06.148Z,35.80
2018-08-03T23:39:33.612Z,36.00
2018-08-03T23:42:01.077Z,36.10
2018-08-03T23:44:28.532Z,36.20
2018-08-03T23:46:56.340Z,36.50
2018-08-03T23:49:24.136Z,36.50
2018-08-03T23:51:51.604Z,36.90
2018-08-03T23:54:19.416Z,36.40
2018-08-03T23:56:47.225Z,36.50
2018-08-03T23:59:14.695Z,36.60
